Aviation Digital Data Service (ADDS)

Output produced by METARs form (2225 UTC 23 March 2019)
found at http://www.aviationweather.gov/metar/data/
 
Forecast for: AMD
Text: TAF AMD EKVG 231701Z 2317/2321 25018KT 9999 SCT025
Forecast period: 1700 to 2100 UTC 23 March 2019
Forecast type: FROM: standard forecast or significant change
Winds: from the WSW (250 degrees) at 21 MPH (18 knots; 9.3 m/s)
Visibility: 6 or more miles 10+ km)
Ceiling: at least 12,000 feet AGL
Clouds: scattered clouds at 2500 feet AGL
Weather: no significant weather forecast for this period
Text: TEMPO 2317/2321 23028G45KT 4000 SHRAGS BKN012 SCT020CB
Forecast period: 1700 to 2100 UTC 23 March 2019
Forecast type: TEMPORARY: The following changes expected for less than half the time period
Winds: from the SW (230 degrees) at 32 MPH (28 knots; 14.4 m/s)
gusting to 52 MPH (45 knots; 23.1 m/s)
Visibility: 2.49 miles (4.01 km)
Ceiling: 1200 feet AGL
Clouds: broken clouds at 1200 feet AGL
scattered clouds at 2000 feet AGL
Weather: SHRA SHGS  (rain showers, small hail or graupel showers)